createdAt,value
2023-02-06T00:00:51.538Z,100.00
2023-02-06T00:01:50.971Z,100.00
2023-02-06T00:02:47.846Z,100.00
2023-02-06T00:03:44.744Z,100.00
2023-02-06T00:04:41.525Z,100.00
2023-02-06T00:05:38.459Z,100.00
2023-02-06T00:06:35.711Z,100.00
2023-02-06T00:07:32.584Z,100.00
2023-02-06T00:08:29.476Z,100.00
2023-02-06T00:09:26.338Z,100.00
2023-02-06T00:10:23.656Z,100.00
2023-02-06T00:11:21.882Z,100.00
2023-02-06T00:12:18.808Z,100.00
2023-02-06T00:13:15.555Z,100.00
2023-02-06T00:14:12.313Z,100.00
2023-02-06T00:15:09.550Z,100.00
2023-02-06T00:16:15.012Z,100.00
2023-02-06T00:17:11.856Z,100.00
2023-02-06T00:18:08.623Z,100.00
2023-02-06T00:19:05.622Z,100.00
2023-02-06T00:20:03.516Z,100.00
2023-02-06T00:21:00.490Z,100.00
2023-02-06T00:21:57.332Z,100.00
2023-02-06T00:22:54.147Z,100.00
2023-02-06T00:23:52.929Z,100.00
2023-02-06T00:24:49.745Z,100.00
2023-02-06T00:25:46.889Z,100.00
2023-02-06T00:26:43.719Z,100.00
2023-02-06T00:27:40.570Z,100.00
2023-02-06T00:28:37.544Z,100.00
2023-02-06T00:29:34.363Z,100.00
2023-02-06T00:30:31.181Z,100.00
2023-02-06T00:31:28.650Z,100.00
2023-02-06T00:32:25.628Z,100.00
2023-02-06T00:33:22.462Z,100.00
2023-02-06T00:34:19.296Z,100.00
2023-02-06T00:35:16.086Z,100.00
2023-02-06T00:36:12.976Z,100.00
2023-02-06T00:37:10.406Z,100.00
2023-02-06T00:38:10.443Z,100.00
2023-02-06T00:39:07.277Z,100.00
2023-02-06T00:40:04.386Z,100.00
2023-02-06T00:41:01.153Z,100.00
2023-02-06T00:41:57.887Z,100.00
2023-02-06T00:42:54.628Z,100.00
2023-02-06T00:43:51.740Z,100.00
2023-02-06T00:44:48.793Z,100.00
2023-02-06T00:45:45.571Z,100.00
2023-02-06T00:46:42.412Z,100.00
2023-02-06T00:47:39.291Z,100.00
2023-02-06T00:48:36.180Z,100.00
2023-02-06T00:49:32.902Z,100.00
2023-02-06T00:50:29.767Z,100.00
2023-02-06T00:51:26.562Z,100.00
2023-02-06T00:52:23.365Z,100.00
2023-02-06T00:53:20.630Z,100.00
2023-02-06T00:54:17.540Z,100.00
2023-02-06T00:55:14.365Z,100.00
2023-02-06T00:56:11.184Z,100.00
2023-02-06T00:57:08.097Z,100.00
2023-02-06T00:58:05.002Z,100.00
2023-02-06T00:59:01.762Z,100.00
2023-02-06T00:59:58.643Z,100.00
2023-02-06T01:00:55.569Z,100.00
2023-02-06T01:01:52.385Z,100.00
2023-02-06T01:02:49.284Z,100.00
2023-02-06T01:03:46.083Z,100.00
2023-02-06T01:04:42.856Z,100.00
2023-02-06T01:05:39.656Z,100.00
2023-02-06T01:06:36.594Z,100.00
2023-02-06T01:07:33.436Z,100.00
2023-02-06T01:08:30.372Z,100.00
2023-02-06T01:09:27.247Z,100.00
2023-02-06T01:10:24.013Z,100.00
2023-02-06T01:11:24.134Z,100.00
2023-02-06T01:12:20.950Z,100.00
2023-02-06T01:13:17.797Z,100.00
2023-02-06T01:14:15.899Z,100.00
2023-02-06T01:15:13.579Z,100.00
2023-02-06T01:16:13.494Z,100.00
2023-02-06T01:17:10.668Z,100.00
2023-02-06T01:18:07.543Z,100.00
2023-02-06T01:19:04.355Z,100.00
2023-02-06T01:20:01.258Z,100.00
2023-02-06T01:20:58.083Z,100.00
2023-02-06T01:21:54.903Z,100.00
2023-02-06T01:22:52.555Z,100.00
2023-02-06T01:23:52.036Z,99.92
2023-02-06T01:24:48.920Z,98.57
2023-02-06T01:25:45.666Z,97.97
2023-02-06T01:26:42.388Z,98.15
2023-02-06T01:27:39.483Z,98.36
2023-02-06T01:28:38.612Z,98.60
2023-02-06T01:29:35.603Z,97.03
2023-02-06T01:30:32.613Z,97.96
2023-02-06T01:31:31.397Z,96.60
2023-02-06T01:32:28.375Z,96.27
2023-02-06T01:33:25.340Z,95.49
2023-02-06T01:34:22.175Z,94.30
2023-02-06T01:35:20.166Z,94.13
2023-02-06T01:36:18.891Z,93.45
2023-02-06T01:37:15.746Z,93.00
2023-02-06T01:38:12.526Z,92.39
2023-02-06T01:39:10.675Z,91.79
2023-02-06T01:40:13.191Z,91.58
2023-02-06T01:41:12.938Z,90.88
2023-02-06T01:42:12.849Z,89.91
2023-02-06T01:43:18.186Z,90.09
2023-02-06T01:44:22.581Z,89.46
2023-02-06T01:45:41.666Z,88.80
2023-02-06T01:46:41.293Z,89.19
2023-02-06T01:47:38.128Z,89.26
2023-02-06T01:48:49.959Z,88.12
2023-02-06T01:49:51.056Z,89.48
2023-02-06T01:50:55.638Z,88.72
2023-02-06T01:51:58.643Z,87.18
2023-02-06T01:52:55.698Z,86.21
2023-02-06T01:53:58.492Z,86.01
2023-02-06T01:55:00.320Z,84.90
2023-02-06T01:56:03.446Z,83.58
2023-02-06T01:57:06.894Z,84.49
2023-02-06T01:58:05.986Z,85.25
2023-02-06T01:59:05.401Z,84.94
2023-02-06T02:00:08.302Z,85.82
2023-02-06T02:01:06.970Z,84.80
2023-02-06T02:02:04.138Z,84.29
2023-02-06T02:03:02.256Z,86.13
2023-02-06T02:04:08.510Z,83.61
2023-02-06T02:05:09.774Z,83.04
2023-02-06T02:06:11.067Z,83.09
2023-02-06T02:08:00.980Z,82.68
2023-02-06T02:08:59.064Z,82.22
2023-02-06T02:09:55.988Z,80.91
2023-02-06T02:10:53.150Z,81.11
2023-02-06T02:11:49.900Z,82.18
2023-02-06T02:12:46.717Z,81.87
2023-02-06T02:13:44.523Z,81.62
2023-02-06T02:14:45.646Z,79.39
2023-02-06T02:15:53.492Z,78.38
2023-02-06T02:17:14.777Z,78.25
2023-02-06T02:18:34.026Z,77.74
2023-02-06T02:19:48.938Z,77.82
2023-02-06T02:20:48.340Z,78.00
2023-02-06T02:22:12.029Z,78.39
2023-02-06T02:23:32.886Z,78.36
2023-02-06T02:24:35.665Z,79.37
2023-02-06T02:25:50.523Z,77.52
2023-02-06T02:27:19.450Z,77.85
2023-02-06T02:28:22.147Z,77.86
2023-02-06T02:29:54.040Z,76.13
2023-02-06T02:31:16.721Z,77.71
2023-02-06T02:32:34.882Z,76.33
2023-02-06T02:33:34.298Z,77.25
2023-02-06T02:34:52.522Z,78.12
2023-02-06T02:36:05.328Z,77.35
2023-02-06T02:37:23.797Z,77.05
2023-02-06T02:38:27.228Z,77.69
2023-02-06T02:40:02.283Z,77.08
2023-02-06T02:41:28.745Z,77.16
2023-02-06T02:42:44.576Z,79.26
2023-02-06T02:43:53.790Z,79.31
2023-02-06T02:44:53.080Z,78.59
2023-02-06T02:46:18.109Z,78.84
2023-02-06T02:47:21.519Z,78.95
2023-02-06T02:48:33.755Z,77.89
2023-02-06T02:49:35.582Z,78.53
2023-02-06T02:50:34.287Z,78.11
2023-02-06T02:51:33.187Z,79.02
2023-02-06T02:52:29.922Z,78.44
2023-02-06T02:53:27.765Z,79.23
2023-02-06T02:54:24.835Z,79.41
2023-02-06T02:55:23.798Z,78.25
2023-02-06T02:56:25.763Z,78.41
2023-02-06T02:57:30.643Z,78.01
2023-02-06T02:58:34.224Z,77.82
2023-02-06T02:59:43.672Z,78.15
2023-02-06T03:00:47.523Z,77.49
2023-02-06T03:01:56.104Z,78.00
2023-02-06T03:02:57.539Z,78.25
2023-02-06T03:03:59.327Z,78.22
2023-02-06T03:04:57.839Z,77.62
2023-02-06T03:06:19.596Z,78.33
2023-02-06T03:07:42.871Z,79.32
2023-02-06T03:09:06.144Z,80.15
2023-02-06T03:10:20.911Z,81.07
2023-02-06T03:11:21.063Z,81.72
2023-02-06T03:12:48.140Z,83.46
2023-02-06T03:14:06.096Z,84.77
2023-02-06T03:15:37.340Z,85.94
2023-02-06T03:16:54.614Z,85.80
2023-02-06T03:18:19.391Z,86.83
2023-02-06T03:19:31.269Z,88.21
2023-02-06T03:20:31.945Z,88.81
2023-02-06T03:21:31.582Z,89.90
2023-02-06T03:22:31.098Z,90.16
2023-02-06T03:23:37.494Z,89.99
2023-02-06T03:24:39.403Z,90.20
2023-02-06T03:25:43.038Z,89.51
2023-02-06T03:26:43.459Z,89.47
2023-02-06T03:27:43.728Z,90.06
2023-02-06T03:28:47.874Z,88.74
2023-02-06T03:29:50.360Z,87.90
2023-02-06T03:30:54.173Z,86.92
2023-02-06T03:32:00.608Z,86.02
2023-02-06T03:33:05.149Z,85.66
2023-02-06T03:34:16.260Z,84.85
2023-02-06T03:35:24.882Z,84.88
2023-02-06T03:36:22.207Z,85.38
2023-02-06T03:37:20.003Z,84.77
2023-02-06T03:38:17.116Z,84.82
2023-02-06T03:39:13.982Z,84.29
2023-02-06T03:40:12.557Z,83.06
2023-02-06T03:41:09.516Z,83.80
2023-02-06T03:42:10.037Z,84.61
2023-02-06T03:43:08.842Z,85.89
2023-02-06T03:44:17.081Z,84.85
2023-02-06T03:45:27.860Z,85.01
2023-02-06T03:46:28.998Z,84.70
2023-02-06T03:47:27.637Z,84.04
2023-02-06T03:48:33.592Z,84.93
2023-02-06T03:49:34.557Z,83.65
2023-02-06T03:50:35.353Z,83.29
2023-02-06T03:51:51.583Z,84.13
2023-02-06T03:52:51.836Z,82.71
2023-02-06T03:53:54.014Z,82.28
2023-02-06T03:54:58.946Z,82.51
2023-02-06T03:56:02.966Z,84.03
2023-02-06T03:57:12.330Z,82.53
2023-02-06T03:58:14.471Z,81.40
2023-02-06T03:59:11.568Z,81.54
2023-02-06T04:00:09.869Z,82.31
2023-02-06T04:01:08.119Z,82.80
2023-02-06T04:02:06.896Z,82.95
2023-02-06T04:03:04.992Z,82.45
2023-02-06T04:04:03.914Z,81.60
2023-02-06T04:05:00.664Z,82.00
2023-02-06T04:05:57.409Z,81.20
2023-02-06T04:06:55.078Z,81.79
2023-02-06T04:07:53.938Z,83.52
2023-02-06T04:08:50.785Z,83.75
2023-02-06T04:09:47.580Z,83.70
2023-02-06T04:10:44.404Z,82.58
2023-02-06T04:11:41.376Z,82.21
2023-02-06T04:12:38.658Z,82.08
2023-02-06T04:13:35.668Z,80.79
2023-02-06T04:14:32.586Z,82.21
2023-02-06T04:15:29.417Z,82.79
2023-02-06T04:16:26.259Z,83.72
2023-02-06T04:17:40.745Z,83.32
2023-02-06T04:18:39.871Z,83.58
2023-02-06T04:19:38.029Z,84.60
2023-02-06T04:20:40.828Z,86.06
2023-02-06T04:21:37.715Z,84.52
2023-02-06T04:22:34.653Z,84.44
2023-02-06T04:23:31.428Z,84.75
2023-02-06T04:24:30.615Z,85.60
2023-02-06T04:25:27.755Z,83.82
2023-02-06T04:26:24.697Z,83.17
2023-02-06T04:27:21.498Z,82.63
2023-02-06T04:28:18.454Z,82.69
2023-02-06T04:29:15.277Z,82.01
2023-02-06T04:30:12.715Z,82.22
2023-02-06T04:31:09.670Z,82.00
2023-02-06T04:32:06.856Z,80.89
2023-02-06T04:33:04.033Z,81.25
2023-02-06T04:34:00.739Z,82.36
2023-02-06T04:34:57.567Z,82.27
2023-02-06T04:35:54.898Z,83.84
2023-02-06T04:36:51.730Z,84.30
2023-02-06T04:37:48.568Z,83.94
2023-02-06T04:38:45.404Z,82.87
2023-02-06T04:39:42.271Z,82.95
2023-02-06T04:40:39.118Z,82.63
2023-02-06T04:41:36.037Z,82.85
2023-02-06T04:42:33.153Z,81.38
2023-02-06T04:43:29.987Z,81.73
2023-02-06T04:44:26.785Z,81.37
2023-02-06T04:45:23.609Z,80.94
2023-02-06T04:46:20.456Z,80.81
2023-02-06T04:47:17.296Z,81.27
2023-02-06T04:48:14.010Z,81.76
2023-02-06T04:49:11.291Z,81.49
2023-02-06T04:50:10.508Z,81.04
2023-02-06T04:51:07.484Z,81.13
2023-02-06T04:52:04.473Z,81.41
2023-02-06T04:53:01.226Z,80.10
2023-02-06T04:53:57.998Z,80.87
2023-02-06T04:54:54.722Z,80.80
2023-02-06T04:55:51.580Z,80.84
2023-02-06T04:56:49.140Z,79.87
2023-02-06T04:57:46.038Z,79.44
2023-02-06T04:58:42.852Z,79.82
2023-02-06T04:59:39.654Z,79.45
2023-02-06T05:00:38.753Z,78.80
2023-02-06T05:01:36.053Z,77.87
2023-02-06T05:02:37.592Z,77.79
2023-02-06T05:03:34.626Z,77.75
2023-02-06T05:04:31.572Z,77.97
2023-02-06T05:05:28.465Z,77.17
2023-02-06T05:06:25.509Z,78.18
2023-02-06T05:07:22.447Z,77.17
2023-02-06T05:08:19.614Z,76.78
2023-02-06T05:09:19.064Z,76.34
2023-02-06T05:10:15.936Z,76.31
2023-02-06T05:11:13.035Z,75.41
2023-02-06T05:12:09.915Z,75.21
2023-02-06T05:13:07.217Z,74.34
2023-02-06T05:14:04.054Z,75.20
2023-02-06T05:15:00.805Z,75.47
2023-02-06T05:16:01.670Z,74.20
2023-02-06T05:16:58.450Z,74.79
2023-02-06T05:17:55.288Z,73.98
2023-02-06T05:18:57.001Z,74.30
2023-02-06T05:19:53.847Z,73.91
2023-02-06T05:20:50.621Z,73.18
2023-02-06T05:21:47.498Z,72.88
2023-02-06T05:22:44.330Z,72.13
2023-02-06T05:23:41.105Z,73.01
2023-02-06T05:24:37.893Z,72.26
2023-02-06T05:25:36.312Z,71.78
2023-02-06T05:26:33.524Z,72.10
2023-02-06T05:27:30.321Z,74.08
2023-02-06T05:28:29.759Z,73.71
2023-02-06T05:29:26.910Z,73.92
2023-02-06T05:30:24.995Z,73.81
2023-02-06T05:31:21.817Z,74.24
2023-02-06T05:32:19.411Z,74.89
2023-02-06T05:33:16.339Z,73.99
2023-02-06T05:34:13.132Z,75.02
2023-02-06T05:35:10.573Z,73.63
2023-02-06T05:36:07.967Z,74.05
2023-02-06T05:37:04.798Z,74.28
2023-02-06T05:38:01.594Z,74.42
2023-02-06T05:38:58.392Z,74.81
2023-02-06T05:39:55.292Z,75.64
2023-02-06T05:40:52.232Z,76.38
2023-02-06T05:41:49.159Z,76.16
2023-02-06T05:42:45.891Z,75.90
2023-02-06T05:43:42.976Z,74.97
2023-02-06T05:44:39.873Z,74.64
2023-02-06T05:45:37.275Z,75.31
2023-02-06T05:46:34.302Z,75.52
2023-02-06T05:47:31.052Z,76.19
2023-02-06T05:48:30.609Z,75.84
2023-02-06T05:49:27.524Z,75.60
2023-02-06T05:50:24.277Z,75.38
2023-02-06T05:51:21.124Z,75.54
2023-02-06T05:52:18.455Z,75.28
2023-02-06T05:53:16.763Z,75.25
2023-02-06T05:54:16.932Z,76.10
2023-02-06T05:55:13.816Z,75.70
2023-02-06T05:56:10.757Z,76.24
2023-02-06T05:57:11.135Z,75.57
2023-02-06T05:58:08.131Z,75.15
2023-02-06T05:59:05.006Z,76.54
2023-02-06T06:00:02.447Z,76.84
2023-02-06T06:00:59.409Z,75.81
2023-02-06T06:01:56.171Z,75.72
2023-02-06T06:02:53.035Z,76.26
2023-02-06T06:03:50.006Z,75.75
2023-02-06T06:04:46.863Z,76.20
2023-02-06T06:05:43.682Z,76.13
2023-02-06T06:06:40.514Z,76.55
2023-02-06T06:07:37.400Z,75.84
2023-02-06T06:08:34.390Z,76.16
2023-02-06T06:09:31.172Z,76.96
2023-02-06T06:10:28.097Z,75.80
2023-02-06T06:11:24.915Z,75.75
2023-02-06T06:12:21.908Z,75.85
2023-02-06T06:13:19.433Z,75.40
2023-02-06T06:14:16.315Z,74.46
2023-02-06T06:15:13.502Z,75.15
2023-02-06T06:16:10.587Z,74.35
2023-02-06T06:17:07.376Z,73.86
2023-02-06T06:18:04.391Z,73.65
2023-02-06T06:19:01.922Z,74.18
2023-02-06T06:19:58.819Z,74.27
2023-02-06T06:20:55.695Z,73.92
2023-02-06T06:21:52.606Z,74.54
2023-02-06T06:22:50.347Z,73.67
2023-02-06T06:23:47.131Z,74.02
2023-02-06T06:24:44.062Z,74.75
2023-02-06T06:25:40.941Z,74.57
2023-02-06T06:26:37.784Z,73.28
2023-02-06T06:27:34.693Z,73.70
2023-02-06T06:28:31.697Z,74.48
2023-02-06T06:29:28.668Z,73.77
2023-02-06T06:30:25.510Z,73.60
2023-02-06T06:31:22.497Z,73.89
2023-02-06T06:32:19.819Z,74.69
2023-02-06T06:33:17.851Z,73.24
2023-02-06T06:34:14.597Z,73.34
2023-02-06T06:35:11.471Z,73.72
2023-02-06T06:36:11.112Z,73.31
2023-02-06T06:37:09.223Z,74.41
2023-02-06T06:38:06.052Z,75.31
2023-02-06T06:39:03.180Z,74.87
2023-02-06T06:40:00.013Z,74.51
2023-02-06T06:40:56.791Z,74.62
2023-02-06T06:41:53.593Z,75.50
2023-02-06T06:42:50.493Z,75.28
2023-02-06T06:43:47.234Z,76.61
2023-02-06T06:44:44.035Z,77.57
2023-02-06T06:45:40.884Z,78.02
2023-02-06T06:46:37.817Z,77.46
2023-02-06T06:47:34.776Z,77.30
2023-02-06T06:48:32.878Z,76.27
2023-02-06T06:49:29.650Z,76.10
2023-02-06T06:50:26.644Z,76.10
2023-02-06T06:51:23.832Z,76.47
2023-02-06T06:52:25.378Z,75.78
2023-02-06T06:53:23.165Z,75.94
2023-02-06T06:54:20.077Z,76.69
2023-02-06T06:55:17.379Z,76.08
2023-02-06T06:56:15.224Z,76.30
2023-02-06T06:57:14.362Z,76.45
2023-02-06T06:58:11.209Z,76.78
2023-02-06T06:59:08.394Z,77.84
2023-02-06T07:00:05.925Z,78.01
2023-02-06T07:01:02.830Z,78.28
2023-02-06T07:01:59.650Z,79.74
2023-02-06T07:02:56.488Z,80.17
2023-02-06T07:03:53.418Z,79.45
2023-02-06T07:04:50.313Z,78.78
2023-02-06T07:05:47.478Z,79.72
2023-02-06T07:06:44.278Z,79.91
2023-02-06T07:07:41.111Z,80.86
2023-02-06T07:08:43.764Z,80.52
2023-02-06T07:09:40.520Z,79.86
2023-02-06T07:10:37.357Z,79.20
2023-02-06T07:11:34.199Z,80.12
2023-02-06T07:12:31.257Z,80.26
2023-02-06T07:13:28.124Z,79.74
2023-02-06T07:14:25.145Z,79.84
2023-02-06T07:15:22.808Z,79.87
2023-02-06T07:16:20.109Z,78.83
2023-02-06T07:17:17.540Z,79.78
2023-02-06T07:18:14.434Z,79.63
2023-02-06T07:19:11.404Z,79.14
2023-02-06T07:20:08.897Z,79.63
2023-02-06T07:21:08.760Z,78.74
2023-02-06T07:22:05.789Z,79.71
2023-02-06T07:23:02.625Z,78.69
2023-02-06T07:23:59.627Z,77.87
2023-02-06T07:24:56.455Z,77.35
2023-02-06T07:25:54.109Z,75.92
2023-02-06T07:26:50.979Z,75.45
2023-02-06T07:27:48.213Z,76.55
2023-02-06T07:28:45.048Z,75.29
2023-02-06T07:29:41.916Z,75.30
2023-02-06T07:30:38.789Z,74.67
2023-02-06T07:31:35.645Z,75.05
2023-02-06T07:32:35.786Z,75.57
2023-02-06T07:33:34.331Z,74.51
2023-02-06T07:34:31.166Z,75.16
2023-02-06T07:35:29.463Z,75.84
2023-02-06T07:36:26.335Z,74.67
2023-02-06T07:37:23.166Z,74.34
2023-02-06T07:38:20.185Z,74.20
2023-02-06T07:39:17.443Z,73.33
2023-02-06T07:40:14.287Z,72.96
2023-02-06T07:41:12.764Z,74.32
2023-02-06T07:42:12.862Z,73.41
2023-02-06T07:43:09.771Z,73.83
2023-02-06T07:44:07.199Z,73.43
2023-02-06T07:45:04.751Z,72.30
2023-02-06T07:46:04.510Z,72.88
2023-02-06T07:47:01.302Z,71.62
2023-02-06T07:47:58.640Z,72.62
2023-02-06T07:48:55.614Z,72.09
2023-02-06T07:49:52.526Z,71.58
2023-02-06T07:50:49.399Z,72.16
2023-02-06T07:51:47.002Z,70.82
2023-02-06T07:52:43.801Z,70.31
2023-02-06T07:53:40.628Z,70.34
2023-02-06T07:54:37.627Z,69.12
2023-02-06T07:55:37.399Z,68.62
2023-02-06T07:56:34.476Z,67.31
2023-02-06T07:57:31.394Z,67.29
2023-02-06T07:58:28.290Z,66.83
2023-02-06T07:59:25.985Z,66.90
2023-02-06T08:00:23.123Z,67.26
2023-02-06T08:01:21.795Z,66.51
2023-02-06T08:02:18.910Z,66.76
2023-02-06T08:03:15.788Z,66.78
2023-02-06T08:04:12.607Z,66.45
2023-02-06T08:05:09.923Z,67.08
2023-02-06T08:06:14.949Z,66.81
2023-02-06T08:07:15.060Z,68.16
2023-02-06T08:08:11.985Z,67.66
2023-02-06T08:09:13.194Z,67.65
2023-02-06T08:10:10.168Z,67.49
2023-02-06T08:11:09.268Z,66.38
2023-02-06T08:12:06.469Z,64.92
2023-02-06T08:13:03.572Z,64.93
2023-02-06T08:14:00.998Z,64.36
2023-02-06T08:14:57.963Z,64.36
2023-02-06T08:15:54.716Z,64.33
2023-02-06T08:16:51.607Z,64.18
2023-02-06T08:17:48.421Z,64.08
2023-02-06T08:18:48.606Z,63.77
2023-02-06T08:19:45.546Z,63.29
2023-02-06T08:20:42.469Z,63.68
2023-02-06T08:21:39.395Z,63.60
2023-02-06T08:22:37.105Z,63.02
2023-02-06T08:23:33.994Z,63.10
2023-02-06T08:24:31.266Z,63.42
2023-02-06T08:25:28.021Z,62.57
2023-02-06T08:26:27.095Z,62.33
2023-02-06T08:27:23.990Z,61.97
2023-02-06T08:28:20.793Z,62.40
2023-02-06T08:29:17.643Z,62.48
2023-02-06T08:30:14.480Z,62.06
2023-02-06T08:31:19.900Z,61.47
2023-02-06T08:32:16.756Z,60.64
2023-02-06T08:33:13.465Z,60.74
2023-02-06T08:34:13.714Z,60.25
2023-02-06T08:35:10.527Z,59.80
2023-02-06T08:36:08.518Z,59.31
2023-02-06T08:37:05.378Z,58.83
2023-02-06T08:38:02.294Z,58.51
2023-02-06T08:39:00.458Z,58.02
2023-02-06T08:39:57.252Z,58.02
2023-02-06T08:40:54.176Z,58.42
2023-02-06T08:41:50.994Z,58.46
2023-02-06T08:42:50.818Z,57.98
2023-02-06T08:43:49.966Z,57.18
2023-02-06T08:44:46.725Z,57.38
2023-02-06T08:45:50.218Z,56.20
2023-02-06T08:46:49.710Z,56.77
2023-02-06T08:47:49.241Z,57.04
2023-02-06T08:48:46.832Z,57.14
2023-02-06T08:49:43.588Z,56.55
2023-02-06T08:50:40.386Z,56.36
2023-02-06T08:51:37.781Z,57.16
2023-02-06T08:52:34.675Z,56.88
2023-02-06T08:53:31.769Z,56.40
2023-02-06T08:54:28.609Z,55.24
2023-02-06T08:55:25.556Z,55.15
2023-02-06T08:56:22.431Z,55.30
2023-02-06T08:57:19.338Z,54.92
2023-02-06T08:58:16.136Z,55.01
2023-02-06T08:59:15.081Z,55.81
2023-02-06T09:00:12.722Z,55.87
2023-02-06T09:01:13.887Z,56.05
2023-02-06T09:02:11.730Z,55.43
2023-02-06T09:03:08.622Z,55.78
2023-02-06T09:04:08.478Z,56.15
2023-02-06T09:05:05.672Z,55.39
2023-02-06T09:06:09.911Z,55.00
2023-02-06T09:07:07.233Z,54.38
2023-02-06T09:08:04.248Z,56.16
2023-02-06T09:09:01.115Z,56.12
2023-02-06T09:09:57.834Z,55.23
2023-02-06T09:10:54.617Z,55.15
2023-02-06T09:11:51.387Z,54.80
2023-02-06T09:12:48.350Z,55.73
2023-02-06T09:13:49.728Z,56.20
2023-02-06T09:14:46.656Z,56.18
2023-02-06T09:15:51.035Z,55.94
2023-02-06T09:16:47.938Z,56.34
2023-02-06T09:17:44.974Z,56.03
2023-02-06T09:18:42.406Z,55.76
2023-02-06T09:19:39.418Z,55.37
2023-02-06T09:20:36.182Z,55.34
2023-02-06T09:21:35.151Z,54.76
2023-02-06T09:22:34.096Z,54.33
2023-02-06T09:23:30.964Z,54.52
2023-02-06T09:24:30.244Z,55.19
2023-02-06T09:25:27.296Z,55.26
2023-02-06T09:26:26.707Z,54.51
2023-02-06T09:27:23.655Z,54.32
2023-02-06T09:28:20.479Z,54.40
2023-02-06T09:29:17.397Z,53.80
2023-02-06T09:30:15.566Z,54.60
2023-02-06T09:31:12.655Z,54.57
2023-02-06T09:32:09.538Z,54.59
2023-02-06T09:33:06.436Z,54.50
2023-02-06T09:34:04.749Z,54.40
2023-02-06T09:35:03.633Z,54.44
2023-02-06T09:36:10.468Z,54.34
2023-02-06T09:37:07.407Z,54.81
2023-02-06T09:38:04.231Z,53.82
2023-02-06T09:39:04.838Z,54.30
2023-02-06T09:40:01.721Z,54.36
2023-02-06T09:41:06.729Z,55.16
2023-02-06T09:42:14.517Z,55.42
2023-02-06T09:43:14.210Z,56.12
2023-02-06T09:44:10.981Z,56.30
2023-02-06T09:45:19.959Z,55.75
2023-02-06T09:46:23.529Z,55.19
2023-02-06T09:47:37.731Z,54.47
2023-02-06T09:48:38.115Z,54.67
2023-02-06T09:49:48.904Z,54.57
2023-02-06T09:50:58.675Z,54.96
2023-02-06T09:52:21.576Z,54.80
2023-02-06T09:53:30.524Z,55.66
2023-02-06T09:54:50.626Z,54.56
2023-02-06T09:56:10.378Z,54.53
2023-02-06T09:57:45.579Z,53.74
2023-02-06T09:58:48.014Z,53.97
2023-02-06T09:59:51.556Z,54.04
2023-02-06T10:01:20.803Z,53.77
2023-02-06T10:02:58.959Z,53.33
2023-02-06T10:04:14.744Z,53.20
2023-02-06T10:05:52.546Z,53.84
2023-02-06T10:07:18.031Z,54.31
2023-02-06T10:08:34.629Z,54.46
2023-02-06T10:10:01.776Z,53.83
2023-02-06T10:11:05.779Z,53.08
2023-02-06T10:12:24.757Z,52.16
2023-02-06T10:13:36.803Z,53.00
2023-02-06T10:14:42.588Z,52.37
2023-02-06T10:15:47.575Z,51.97
2023-02-06T10:16:57.089Z,52.74
2023-02-06T10:18:01.633Z,52.76
2023-02-06T10:19:11.560Z,52.75
2023-02-06T10:20:26.440Z,52.79
2023-02-06T10:21:32.699Z,53.44
2023-02-06T10:23:00.278Z,53.18
2023-02-06T10:24:28.935Z,53.24
2023-02-06T10:25:30.995Z,54.17
2023-02-06T10:26:28.751Z,53.30
2023-02-06T10:27:25.647Z,53.59
2023-02-06T10:28:27.404Z,53.54
2023-02-06T10:29:31.808Z,53.04
2023-02-06T10:31:07.160Z,52.54
2023-02-06T10:32:22.445Z,52.43
2023-02-06T10:33:42.394Z,52.22
2023-02-06T10:34:51.803Z,51.42
2023-02-06T10:36:04.200Z,51.70
2023-02-06T10:37:19.355Z,51.16
2023-02-06T10:38:58.283Z,51.16
2023-02-06T10:40:13.580Z,51.38
2023-02-06T10:41:24.030Z,50.97
2023-02-06T10:43:02.757Z,50.73
2023-02-06T10:44:24.587Z,51.52
2023-02-06T10:45:42.379Z,51.76
2023-02-06T10:46:48.372Z,52.13
2023-02-06T10:48:04.332Z,51.58
2023-02-06T10:49:16.392Z,52.28
2023-02-06T10:50:34.138Z,51.42
2023-02-06T10:51:36.384Z,50.81
2023-02-06T10:52:36.191Z,51.07
2023-02-06T10:53:45.691Z,51.72
2023-02-06T10:54:50.805Z,51.53
2023-02-06T10:55:58.180Z,51.54
2023-02-06T10:56:58.596Z,52.14
2023-02-06T10:58:30.406Z,52.62
2023-02-06T10:59:32.796Z,52.76
2023-02-06T11:00:30.956Z,52.53
2023-02-06T11:01:35.770Z,52.37
2023-02-06T11:03:06.292Z,52.05
2023-02-06T11:04:28.329Z,52.09
2023-02-06T11:05:46.364Z,52.89
2023-02-06T11:06:48.028Z,51.60
2023-02-06T11:08:08.496Z,52.80
2023-02-06T11:09:05.345Z,51.93
2023-02-06T11:10:02.375Z,52.29
2023-02-06T11:11:23.777Z,51.64
2023-02-06T11:12:38.114Z,51.67
2023-02-06T11:13:41.083Z,51.96
2023-02-06T11:14:44.077Z,52.61
2023-02-06T11:15:51.562Z,52.36
2023-02-06T11:16:48.686Z,52.14
2023-02-06T11:17:45.616Z,52.86
2023-02-06T11:18:46.086Z,53.06
2023-02-06T11:19:46.748Z,53.42
2023-02-06T11:20:46.360Z,54.01
2023-02-06T11:21:51.004Z,53.41
2023-02-06T11:22:53.195Z,52.74
2023-02-06T11:24:17.872Z,52.50
2023-02-06T11:25:22.988Z,52.59
2023-02-06T11:26:23.201Z,52.04
2023-02-06T11:27:23.149Z,52.58
2023-02-06T11:28:23.396Z,52.14
2023-02-06T11:29:25.425Z,52.43
2023-02-06T11:30:39.314Z,51.85
2023-02-06T11:31:50.424Z,50.76
2023-02-06T11:33:02.649Z,50.75
2023-02-06T11:34:00.977Z,50.62
2023-02-06T11:35:10.865Z,51.68
2023-02-06T11:36:22.907Z,51.65
2023-02-06T11:37:34.727Z,52.12
2023-02-06T11:38:32.805Z,51.74
2023-02-06T11:39:33.583Z,51.02
2023-02-06T11:40:30.514Z,50.68
2023-02-06T11:41:29.133Z,50.58
2023-02-06T11:42:28.084Z,50.28
2023-02-06T11:43:28.632Z,50.38
2023-02-06T11:44:27.773Z,49.81
2023-02-06T11:45:30.575Z,50.18
2023-02-06T11:46:30.790Z,50.08
2023-02-06T11:47:38.219Z,51.22
2023-02-06T11:48:42.546Z,50.53
2023-02-06T11:50:22.596Z,50.84
2023-02-06T11:51:19.405Z,51.34
2023-02-06T11:52:34.565Z,51.33
2023-02-06T11:53:31.845Z,51.58
2023-02-06T11:54:34.231Z,51.45
2023-02-06T11:55:36.792Z,51.96
2023-02-06T11:56:33.753Z,52.85
2023-02-06T11:57:33.964Z,51.94
2023-02-06T11:58:32.430Z,52.69
2023-02-06T11:59:33.917Z,52.40
2023-02-06T12:00:30.982Z,52.81
2023-02-06T12:01:28.097Z,52.96
2023-02-06T12:02:37.342Z,53.23
2023-02-06T12:03:51.761Z,53.47
2023-02-06T12:05:17.964Z,53.29
2023-02-06T12:06:22.205Z,53.78
2023-02-06T12:07:31.481Z,53.10
2023-02-06T12:08:42.526Z,53.18
2023-02-06T12:09:42.912Z,53.76
2023-02-06T12:10:54.364Z,53.22
2023-02-06T12:12:12.671Z,53.05
2023-02-06T12:13:36.634Z,53.66
2023-02-06T12:14:42.124Z,52.67
2023-02-06T12:15:47.489Z,52.74
2023-02-06T12:16:47.102Z,52.55
2023-02-06T12:17:51.831Z,52.39
2023-02-06T12:18:54.523Z,53.04
2023-02-06T12:20:13.319Z,52.69
2023-02-06T12:21:28.382Z,51.67
2023-02-06T12:22:26.788Z,50.86
2023-02-06T12:23:45.175Z,52.26
2023-02-06T12:24:47.588Z,51.36
2023-02-06T12:25:51.497Z,52.03
2023-02-06T12:26:51.178Z,51.92
2023-02-06T12:27:49.744Z,51.31
2023-02-06T12:30:24.885Z,50.67
2023-02-06T12:31:50.539Z,51.09
2023-02-06T12:32:54.150Z,50.79
2023-02-06T12:33:55.324Z,51.28
2023-02-06T12:35:01.215Z,51.03
2023-02-06T12:36:07.383Z,51.80
2023-02-06T12:37:25.924Z,51.11
2023-02-06T12:38:41.821Z,50.95
2023-02-06T12:39:38.588Z,50.87
2023-02-06T12:40:51.752Z,51.80
2023-02-06T12:42:03.504Z,51.55
2023-02-06T12:43:07.055Z,51.18
2023-02-06T12:44:47.211Z,51.74
2023-02-06T12:46:23.509Z,51.76
2023-02-06T12:47:40.443Z,51.72
2023-02-06T12:48:45.705Z,52.32
2023-02-06T12:50:00.402Z,51.45
2023-02-06T12:51:02.780Z,51.96
2023-02-06T12:52:34.427Z,51.99
2023-02-06T12:53:37.306Z,51.76
2023-02-06T12:54:44.724Z,51.53
2023-02-06T12:56:05.505Z,52.30
2023-02-06T12:57:19.090Z,50.69
2023-02-06T12:58:32.039Z,51.92
2023-02-06T12:59:58.200Z,51.61
2023-02-06T13:01:38.566Z,50.66
2023-02-06T13:03:12.761Z,50.85
2023-02-06T13:04:24.632Z,51.58
2023-02-06T13:05:38.477Z,52.10
2023-02-06T13:06:50.955Z,49.83
2023-02-06T13:07:50.853Z,50.32
2023-02-06T13:09:01.553Z,50.89
2023-02-06T13:10:08.640Z,50.97
2023-02-06T13:11:43.500Z,51.09
2023-02-06T13:12:40.373Z,51.46
2023-02-06T13:13:41.868Z,51.62
2023-02-06T13:14:50.700Z,50.21
2023-02-06T13:15:55.380Z,51.54
2023-02-06T13:16:57.130Z,51.06
2023-02-06T13:17:58.556Z,50.85